Weather History for Jackson, MN

Change the Weather History Date:

Friday, February 8, 2013

  Actual Average Record
Temperature  
Mean Temperature 26 °F -  
Max Temperature 30 °F 28 °F 53 °F (2002)
Min Temperature 23 °F 11 °F -13 °F (2007)
Degree Days  
Heating Degree Days 38    
Moisture  
Dew Point 21 °F    
Average Humidity 80    
Maximum Humidity 86    
Minimum Humidity 69    
Precipitation  
Precipitation 0.00 in - - ()
Sea Level Pressure  
Sea Level Pressure 30.23 in    
Wind  
Wind Speed 8 mph (SE)    
Max Wind Speed 20 mph    
Max Gust Speed 25 mph    
Visibility 10 miles    
Events      
Averages and records for this station are not official NWS values.
T = Trace of Precipitation, MM = Missing Value Source: NWS Daily Summary

Daily Weather History Graph

Daily Weather History Graph

Search for Another Location

Airport:

Trip Planner

Search our weather history database for the weather conditions in past years. The results will help you decide how hot, cold, wet, or windy it might be!

Date:

Astronomy

Feb. 08, 2013 Rise Set
Actual Time 7:27 AM CST 5:41 PM CST
Civil Twilight 6:57 AM CST 6:11 PM CST
Nautical Twilight 6:23 AM CST 6:44 PM CST
Astronomical Twilight 5:50 AM CST 7:18 PM CST
Moon 5:58 AM CST (2/8) 4:14 PM CST (2/8)
Length of Visible Light 11h 13m
Length of Day
10h 13m
Waning Crescent, 3% of the Moon is Illuminated
Feb 8
Waning Crescent
Feb 10
New
Feb 17
First Quarter
Feb 25
Full
Mar 4
Last Quarter

Hourly Weather History & Observations

Time (CST) Temp. Windchill Dew Point Humidity Pressure Visibility Wind Dir Wind Speed Gust Speed Precip Events Conditions
12:13 AM 24.8 °F 16.1 °F 19.4 °F 80% 30.24 in 10.0 mi North 8.1 mph - N/A   Overcast
12:32 AM 24.8 °F 15.3 °F 19.4 °F 80% 30.24 in 10.0 mi North 9.2 mph - N/A   Overcast
1:13 AM 24.8 °F 15.3 °F 19.4 °F 80% 30.25 in 10.0 mi NNE 9.2 mph - N/A   Overcast
1:32 AM 24.8 °F 17.9 °F 19.4 °F 80% 30.26 in 10.0 mi North 5.8 mph - N/A   Overcast
1:53 AM 24.8 °F 16.9 °F 19.4 °F 80% 30.26 in 10.0 mi North 6.9 mph - N/A   Overcast
2:13 AM 24.8 °F 16.1 °F 19.4 °F 80% 30.26 in 10.0 mi North 8.1 mph - N/A   Overcast
2:32 AM 23.0 °F 13.9 °F 19.4 °F 86% 30.26 in 10.0 mi NNE 8.1 mph - N/A   Overcast
2:53 AM 23.0 °F 13.1 °F 19.4 °F 86% 30.26 in 10.0 mi NE 9.2 mph - N/A   Overcast
3:32 AM 23.0 °F 17.0 °F 17.6 °F 80% 30.26 in 10.0 mi NNE 4.6 mph - N/A   Overcast
3:53 AM 23.0 °F 17.0 °F 17.6 °F 80% 30.26 in 10.0 mi North 4.6 mph - N/A   Overcast
4:13 AM 23.0 °F 17.0 °F 17.6 °F 80% 30.27 in 10.0 mi NNW 4.6 mph - N/A   Overcast
4:32 AM 23.0 °F - 17.6 °F 80% 30.26 in 10.0 mi Calm Calm - N/A   Overcast
4:53 AM 23.0 °F - 17.6 °F 80% 30.27 in 10.0 mi Calm Calm - N/A   Overcast
5:12 AM 23.0 °F 17.0 °F 17.6 °F 80% 30.27 in 10.0 mi NNE 4.6 mph - N/A   Overcast
5:33 AM 23.0 °F 15.8 °F 17.6 °F 80% 30.28 in 10.0 mi NNW 5.8 mph - N/A   Overcast
6:12 AM 23.0 °F 18.4 °F 17.6 °F 80% 30.27 in 10.0 mi NE 3.5 mph - N/A   Overcast
6:33 AM 23.0 °F - 17.6 °F 80% 30.28 in 10.0 mi Calm Calm - N/A   Overcast
6:52 AM 23.0 °F - 17.6 °F 80% 30.28 in 10.0 mi Calm Calm - N/A   Overcast
7:13 AM 23.0 °F 17.0 °F 17.6 °F 80% 30.29 in 10.0 mi NNE 4.6 mph - N/A   Overcast
7:33 AM 23.0 °F - 17.6 °F 80% 30.30 in 10.0 mi Calm Calm - N/A   Overcast
7:52 AM 23.0 °F - 17.6 °F 80% 30.30 in 10.0 mi Calm Calm - N/A   Overcast
8:13 AM 23.0 °F 18.4 °F 17.6 °F 80% 30.30 in 10.0 mi ESE 3.5 mph - N/A   Overcast
8:32 AM 23.0 °F 18.4 °F 17.6 °F 80% 30.30 in 10.0 mi ESE 3.5 mph - N/A   Overcast
8:53 AM 23.0 °F 18.4 °F 17.6 °F 80% 30.30 in 10.0 mi ESE 3.5 mph - N/A   Overcast
9:13 AM 23.0 °F 17.0 °F 19.4 °F 86% 30.30 in 10.0 mi SE 4.6 mph - N/A   Overcast
9:32 AM 23.0 °F 14.7 °F 19.4 °F 86% 30.30 in 10.0 mi SSE 6.9 mph - N/A   Overcast
9:53 AM 23.0 °F 14.7 °F 19.4 °F 86% 30.30 in 10.0 mi SE 6.9 mph - N/A   Overcast
10:13 AM 23.0 °F 13.9 °F 19.4 °F 86% 30.30 in 10.0 mi SSE 8.1 mph - N/A   Overcast
10:58 AM 24.8 °F 16.1 °F 19.4 °F 80% 30.31 in 10.0 mi SSE 8.1 mph - N/A   Overcast
11:13 AM 26.6 °F 17.5 °F 19.4 °F 74% 30.31 in 10.0 mi South 9.2 mph - N/A   Overcast
11:32 AM 26.6 °F 17.5 °F 19.4 °F 74% 30.30 in 10.0 mi SSE 9.2 mph - N/A   Overcast
11:53 AM 26.6 °F 17.5 °F 21.2 °F 80% 30.30 in 10.0 mi SSE 9.2 mph 16.1 mph N/A   Overcast
12:13 PM 28.4 °F 19.1 °F 21.2 °F 74% 30.29 in 10.0 mi South 10.4 mph - N/A   Overcast
12:32 PM 26.6 °F 16.2 °F 21.2 °F 80% 30.27 in 10.0 mi SE 11.5 mph - N/A   Overcast
12:53 PM 28.4 °F 19.1 °F 21.2 °F 74% 30.27 in 10.0 mi SSE 10.4 mph - N/A   Overcast
1:13 PM 28.4 °F 18.5 °F 21.2 °F 74% 30.27 in 10.0 mi SSE 11.5 mph - N/A   Overcast
1:32 PM 28.4 °F 18.5 °F 21.2 °F 74% 30.26 in 10.0 mi SSE 11.5 mph - N/A   Overcast
1:53 PM 30.2 °F 22.6 °F 21.2 °F 69% 30.25 in 10.0 mi South 8.1 mph - N/A   Overcast
2:12 PM 30.2 °F 20.8 °F 23.0 °F 75% 30.25 in 10.0 mi SSE 11.5 mph - N/A   Overcast
2:33 PM 30.2 °F 21.9 °F 23.0 °F 75% 30.23 in 10.0 mi SSE 9.2 mph - N/A   Overcast
2:53 PM 30.2 °F 19.8 °F 23.0 °F 75% 30.23 in 10.0 mi SSE 13.8 mph - N/A   Mostly Cloudy
3:12 PM 30.2 °F 19.8 °F 23.0 °F 75% 30.22 in 10.0 mi SSE 13.8 mph - N/A   Scattered Clouds
3:33 PM 30.2 °F 19.8 °F 23.0 °F 75% 30.21 in 10.0 mi SE 13.8 mph - N/A   Scattered Clouds
3:53 PM 30.2 °F 20.2 °F 23.0 °F 75% 30.20 in 10.0 mi SSE 12.7 mph - N/A   Clear
4:12 PM 30.2 °F 20.8 °F 23.0 °F 75% 30.20 in 10.0 mi SSE 11.5 mph - N/A   Clear
4:33 PM 30.2 °F 20.8 °F 23.0 °F 75% 30.19 in 10.0 mi SE 11.5 mph - N/A   Clear
4:53 PM 30.2 °F 20.2 °F 23.0 °F 75% 30.18 in 10.0 mi SE 12.7 mph - N/A   Clear
5:12 PM 30.2 °F 20.8 °F 23.0 °F 75% 30.18 in 10.0 mi SE 11.5 mph - N/A   Clear
5:33 PM 28.4 °F 17.5 °F 23.0 °F 80% 30.18 in 10.0 mi SSE 13.8 mph 17.3 mph N/A   Clear
5:53 PM 28.4 °F 18.5 °F 23.0 °F 80% 30.18 in 10.0 mi SSE 11.5 mph 17.3 mph N/A   Clear
6:12 PM 28.4 °F 17.5 °F 23.0 °F 80% 30.19 in 10.0 mi SSE 13.8 mph - N/A   Clear
6:33 PM 28.4 °F 18.5 °F 23.0 °F 80% 30.17 in 10.0 mi SSE 11.5 mph - N/A   Clear
6:53 PM 28.4 °F 17.0 °F 23.0 °F 80% 30.17 in 10.0 mi SSE 15.0 mph - N/A   Mostly Cloudy
7:12 PM 28.4 °F 17.0 °F 23.0 °F 80% 30.17 in 10.0 mi SSE 15.0 mph - N/A   Overcast
7:33 PM 26.6 °F 14.7 °F 23.0 °F 86% 30.16 in 10.0 mi SSE 15.0 mph 21.9 mph N/A   Overcast
7:53 PM 26.6 °F 15.7 °F 23.0 °F 86% 30.16 in 10.0 mi SSE 12.7 mph 21.9 mph N/A   Overcast
8:12 PM 26.6 °F 16.2 °F 23.0 °F 86% 30.16 in 10.0 mi SSE 11.5 mph - N/A   Overcast
8:33 PM 26.6 °F 14.7 °F 23.0 °F 86% 30.15 in 10.0 mi SSE 15.0 mph - N/A   Overcast
8:52 PM 26.6 °F 15.2 °F 23.0 °F 86% 30.15 in 7.0 mi SSE 13.8 mph - N/A   Overcast
9:13 PM 26.6 °F 13.4 °F 23.0 °F 86% 30.15 in 10.0 mi SSE 18.4 mph 25.3 mph N/A   Overcast
9:33 PM 26.6 °F 15.2 °F 23.0 °F 86% 30.15 in 10.0 mi SSE 13.8 mph - N/A   Overcast
9:52 PM 26.6 °F 13.4 °F 23.0 °F 86% 30.15 in 7.0 mi SSE 18.4 mph 23.0 mph N/A   Overcast
10:13 PM 26.6 °F 13.4 °F 23.0 °F 86% 30.15 in 7.0 mi SSE 18.4 mph 24.2 mph N/A   Overcast
10:33 PM 26.6 °F 14.3 °F 23.0 °F 86% 30.15 in 5.0 mi SSE 16.1 mph 24.2 mph N/A   Overcast
10:52 PM 26.6 °F 13.1 °F 23.0 °F 86% 30.14 in 5.0 mi South 19.6 mph 24.2 mph N/A   Overcast
11:13 PM 26.6 °F 13.4 °F 23.0 °F 86% 30.14 in 5.0 mi South 18.4 mph 25.3 mph N/A   Overcast
11:33 PM 26.6 °F 15.7 °F 23.0 °F 86% 30.14 in 5.0 mi South 12.7 mph - N/A   Overcast
11:52 PM 26.6 °F 13.8 °F 23.0 °F 86% 30.15 in 5.0 mi South 17.3 mph 24.2 mph N/A   Overcast